Terminal Aerodrome Forecast
Issued by NWS

Home | Current Version | Previous Version | Text Only | Print | Product List | Glossary On
Versions: 1 2 3 4 5 6 7 8 9 10 11 12 13 14 15 16 17 18 19 20 21 22 23 24 25 26 27 28
000
FTUS41 KALY 212300
TAFPSF
TAF
KPSF 212320Z 2200/2224 00000KT 5SM BR SCT012 OVC022
      TEMPO 2200/2203 3SM -SHSN BR BKN012 OVC020
     FM220300 00000KT 4SM -SHSN BR OVC012
     FM220800 VRB03KT 5SM -SHSN BR SCT012 OVC020
     FM221600 VRB03KT 4SM BR VCSH SCT008 OVC015=

USA.gov is the U.S. government's official web portal to all federal, state and local government web resources and services.